Flight Track Log - Related Links

Times and Time Zones

All times are in EDT time to prevent confusion due to time zone crossing. See the TMC420 flight status page for this flight to view local times or setup timezone preferences in your user account.

Time Position Orientation Groundspeed Altitude Reporting Facility
EDT Latitude Longitude Course Direction KTS MPH feet Rate Location/Type
Thu 02:11:10 PM 29.7797 -93.3222 206° Southwest 93 107 800  Level Houston Center
Thu 02:12:00 PM 29.7619 -93.3322 206° Southwest 89 102 1,200 205 Climbing Houston Center
Thu 02:13:07 PM 29.7236 -93.3494 201° Southwest 132 152 1,200  Level Houston Center
Thu 02:14:08 PM 29.6897 -93.3664 203° Southwest 132 152 1,200 49 Level Houston Center
Thu 02:15:10 PM 29.6575 -93.3806 201° Southwest 131 151 1,300  Climbing Houston Center
Thu 02:16:11 PM 29.6214 -93.3953 200° South 128 147 1,200 -49 Descending Houston Center
Thu 02:17:12 PM 29.5872 -93.4097 200° South 129 148 1,200  Level Houston Center
Thu 02:19:09 PM 29.5211 -93.4406 202° Southwest 130 150 1,200  Level Houston Center
Thu 02:20:11 PM 29.4867 -93.4547 200° South 131 151 1,200  Level Houston Center
Thu 02:21:13 PM 29.4597 -93.4586 187° South 116 133 1,200  Level Houston Center
Thu 02:22:19 PM 29.4147 -93.4889 210° Southwest 157 181 1,200 49 Level Houston Center
Thu 02:23:15 PM 29.3881 -93.4950 191° South 137 158 1,300 51 Climbing Houston Center
Thu 02:24:16 PM 29.3500 -93.5147 204° Southwest 128 147 1,300  Level Houston Center
Thu 02:25:17 PM 29.3117 -93.5294 199° South 137 158 1,300 -47 Level Houston Center
Thu 02:26:25 PM 29.2733 -93.5444 199° South 157 181 1,200 -49 Descending Houston Center
Thu 02:27:20 PM 29.2414 -93.5800 224° Southwest 238 274 1,200  Level Houston Center
Thu 02:29:00 PM 29.4001 -93.7066 325° Northwest  Level FlightAware Approximate
Thu 02:36:00 PM 29.9644 -94.3843 311° West  Level FlightAware Approximate
Thu 02:37:00 PM 30.0411 -94.4848 311° West  Level FlightAware Approximate
Thu 02:38:00 PM 30.1177 -94.5855 311° West  Level FlightAware Approximate
Thu 02:39:00 PM 30.1922 -94.6882 308° West  Level FlightAware Approximate
Thu 02:40:00 PM 30.2631 -94.7945 308° West  Level FlightAware Approximate
Thu 02:41:00 PM 30.3368 -94.8981 312° West  Level FlightAware Approximate
Thu 02:42:00 PM 30.4137 -94.9988 312° West  Level FlightAware Approximate
Thu 02:43:00 PM 30.4905 -95.0997 311° West  Level FlightAware Approximate
Thu 02:44:00 PM 30.5672 -95.2007 311° West  Level FlightAware Approximate
Thu 02:45:00 PM 30.6426 -95.3031 310° West  Level FlightAware Approximate
Thu 02:46:00 PM 30.7165 -95.4071 310° West  Level FlightAware Approximate
Thu 02:47:00 PM 30.7903 -95.5113 310° West  Level FlightAware Approximate
Thu 02:48:00 PM 30.8640 -95.6156 309° West  Level FlightAware Approximate
Thu 02:49:00 PM 30.9382 -95.7194 310° West  Level FlightAware Approximate
Thu 02:50:00 PM 31.0130 -95.8229 310° West  Level FlightAware Approximate
Thu 02:51:00 PM 31.0877 -95.9265 310° West  Level FlightAware Approximate
Thu 02:52:00 PM 31.1850 -95.9894 344° North  Level FlightAware Approximate
Thu 02:53:00 PM 31.2946 -96.0334 340° North  Level FlightAware Approximate
Thu 02:54:00 PM 31.4060 -96.0707 346° North  Level FlightAware Approximate
Thu 02:55:00 PM 31.5168 -96.1105 341° North  Level FlightAware Approximate
Thu 02:56:00 PM 31.6264 -96.1551 341° North  Level FlightAware Approximate
Thu 02:57:00 PM 31.7360 -96.1997 341° North  Level FlightAware Approximate
Thu 02:58:00 PM 31.8456 -96.2445 341° North  Level FlightAware Approximate
Thu 02:59:00 PM 31.9552 -96.2895 341° North  Level FlightAware Approximate
Thu 03:00:00 PM 32.0647 -96.3345 341° North  Level FlightAware Approximate
Thu 03:01:00 PM 32.1742 -96.3796 341° North  Level FlightAware Approximate
Thu 03:02:00 PM 32.2850 -96.4204 343° North  Level FlightAware Approximate
Thu 03:03:00 PM 32.3958 -96.4610 343° North  Level FlightAware Approximate
Thu 03:04:00 PM 32.5066 -96.5016 343° North  Level FlightAware Approximate
Thu 03:05:00 PM 32.6174 -96.5424 343° North  Level FlightAware Approximate
Thu 03:06:00 PM 32.7280 -96.5841 342° North  Level FlightAware Approximate
Thu 03:07:00 PM 32.8381 -96.6274 342° North  Level FlightAware Approximate
Thu 03:08:00 PM 32.9483 -96.6707 342° North  Level FlightAware Approximate
Thu 03:09:00 PM 33.0584 -96.7141 342° North  Level FlightAware Approximate
Thu 03:10:00 PM 33.1685 -96.7577 342° North  Level FlightAware Approximate
Thu 03:11:00 PM 33.2793 -96.7987 344° North  Level FlightAware Approximate
Thu 03:12:00 PM 33.3910 -96.8364 342° North  Level FlightAware Approximate
Thu 03:13:00 PM 33.5017 -96.8748 340° North  Level FlightAware Approximate
Thu 03:14:00 PM 33.6105 -96.9230 340° North  Level FlightAware Approximate
Thu 03:15:00 PM 33.7192 -96.9714 340° North  Level FlightAware Approximate
Thu 03:16:00 PM 33.8300 -97.0117 348° North  Level FlightAware Approximate
Thu 03:17:00 PM 33.9407 -97.0529 342° North  Level FlightAware Approximate
Thu 03:18:00 PM 34.0508 -97.0969 342° North  Level FlightAware Approximate
Thu 03:19:00 PM 34.1593 -97.1463 338° Northwest  Level FlightAware Approximate
Thu 03:20:00 PM 34.2715 -97.1758 352° North  Level FlightAware Approximate
Thu 03:21:00 PM 34.3864 -97.1949 352° North  Level FlightAware Approximate
Thu 03:22:00 PM 34.5009 -97.2168 353° North  Level FlightAware Approximate
Thu 03:23:00 PM 34.6160 -97.2345 353° North  Level FlightAware Approximate
Thu 03:24:00 PM 34.7312 -97.2516 355° North  Level FlightAware Approximate
Thu 03:25:00 PM 34.8467 -97.2645 355° North  Level FlightAware Approximate
Thu 03:26:00 PM 34.9397 -97.3294 336° Northwest  Level FlightAware Approximate
Thu 03:27:00 PM 35.0453 -97.3881 336° Northwest  Level FlightAware Approximate
Thu 03:28:00 PM 35.1479 -97.4541 331° Northwest  Level FlightAware Approximate
Thu 03:29:00 PM 35.2458 -97.5292 321° Northwest  Level FlightAware Approximate
Thu 03:30:00 PM 35.3470 -97.5977 329° Northwest  Level FlightAware Approximate
Thu 03:31:00 PM 35.3833 -97.6000 North  Level FlightAware Approximate
Thu 03:32:00 PM 35.3931 -97.6008 North  Level Estimated
Thu 03:33:00 PM 35.3931 -97.6008 North  Level Estimated
Thu 03:34:00 PM 35.3931 -97.6008 North  Level Estimated
Thu 03:35:00 PM 35.3931 -97.6008 North  Level Estimated
Thu 03:36:00 PM 35.3931 -97.6008 North  Level Estimated
Thu 03:37:00 PM 35.3931 -97.6008 North  Level Estimated
Thu 03:38:00 PM 35.3931 -97.6008 North  Level Estimated
Thu 03:39:00 PM 35.3931 -97.6008 North  Level Estimated
Thu 03:40:00 PM 35.3931 -97.6008 North  Level Estimated
Thu 03:41:00 PM 35.3931 -97.6008 North  Level Estimated
Thu 03:42:00 PM 35.3931 -97.6008 North  Level Estimated
Thu 03:43:00 PM 35.3931 -97.6008 North  Level Estimated
Thu 03:44:00 PM 35.3931 -97.6008 North  Level Estimated
Thu 03:45:00 PM 35.3931 -97.6008 North  Level Estimated
Thu 03:46:00 PM 35.3931 -97.6008 North  Level Estimated
Thu 03:47:00 PM 35.3931 -97.6008 North  Level Estimated
Thu 03:48:00 PM 35.3931 -97.6008 North  Level Estimated
Thu 03:49:00 PM 35.3931 -97.6008 North  Level Estimated
Thu 03:50:00 PM 35.3931 -97.6008 North  Level Estimated
Thu 03:51:00 PM 35.3931 -97.6008 North  Level Estimated
Thu 03:52:00 PM 35.3931 -97.6008 North  Level Estimated
Thu 03:53:00 PM 35.3931 -97.6008 North  Level Estimated
Thu 03:54:00 PM 35.3931 -97.6008 North  Level Estimated

Login

Don't have an account? Register now (free) for customized features, flight alerts, and more!